Yates City, IL (61572)

6:59 PM CDT on July 30, 2016 (GMT -0500)
Elmwood, IL | | Change Station

Elev 643 ft 40.78 °N, 89.97 °W | Updated 4 minutes ago

Clear
Clear
81.6 °F
Feels Like 86 °F
N
3.0
Wind Variable Wind from ENE
Gusts 8.0 mph

Today
High -- | Low -- °F
--% Chance of Precip.
Yesterday
High -- | Low -- °F
Precip. -- in
Pressure 29.94 in
Visibility 10.0 miles
Clouds Clear
Heat Index 86 °F
Dew Point 72 °F
Humidity 72%
Rainfall 0.00 in
Snow Depth Not available.
5:55 AM 8:17 PM
Waning Crescent, 10% visible
METAR KPIA 302354Z 07007KT 10SM CLR 26/20 A2995 RMK AO2 SLP136 T02560200 10289 20250 58004
Pressure 29.94 in
Visibility 10.0 miles
Clouds Clear
Heat Index 86 °F
Dew Point 72 °F
Humidity 72%
Rainfall 0.00 in
Snow Depth Not available.
5:55 AM 8:17 PM
Waning Crescent, 10% visible
METAR KPIA 302354Z 07007KT 10SM CLR 26/20 A2995 RMK AO2 SLP136 T02560200 10289 20250 58004

10-Day Weather Forecast

Almanac

Astronomy

Jul. 30, 2016 Rise Set
Actual Time
Civil Twilight
Nautical Twilight
Astronomical Twilight
Moon
Length of Visible Light
Length of Day
Tomorrow will be .
, % of the Moon is Illuminated

Today's Extremes

State Highs State Lows

Community

WunderPhotos

Upload Photos

1,928,680 photos uploaded!

WunderBlog® & News

Nearby

Air Quality

  Air Quality AQ Index Pollutant
Not available.

Snow Depth

Station Depth Elevation

Earthquake Activity

City Distance Mag. Time & Date
Minimum magnitude displayed is 2.5.

Coastal Water Temperatures

Place Temperature

Stations

Nearby Weather Stations

Station Location Temp. Windchill Dew Point Humidity Wind Precip. Elev Updated Type
                   

Watches & Warnings

There are currently no watches in effect.